createdAt,value
2022-10-31T00:01:21.698Z,14.52
2022-10-31T00:03:49.134Z,24.58
2022-10-31T00:06:19.144Z,18.63
2022-10-31T00:08:47.769Z,20.58
2022-10-31T00:11:15.121Z,16.80
2022-10-31T00:13:42.281Z,17.52
2022-10-31T00:16:24.242Z,15.82
2022-10-31T00:18:56.966Z,14.50
2022-10-31T00:21:25.077Z,14.23
2022-10-31T00:23:52.967Z,15.45
2022-10-31T00:26:20.534Z,16.02
2022-10-31T00:28:48.261Z,15.55
2022-10-31T00:31:15.514Z,15.90
2022-10-31T00:33:42.789Z,16.92
2022-10-31T00:36:14.001Z,18.30
2022-10-31T00:38:42.908Z,16.25
2022-10-31T00:41:11.629Z,15.23
2022-10-31T00:43:42.559Z,14.55
2022-10-31T00:46:10.446Z,15.02
2022-10-31T00:48:37.589Z,14.25
2022-10-31T00:51:05.027Z,15.80
2022-10-31T00:53:32.540Z,15.02
2022-10-31T00:56:00.847Z,15.90
2022-10-31T00:58:28.151Z,15.85
2022-10-31T01:00:56.701Z,14.65
2022-10-31T01:03:31.952Z,15.82
2022-10-31T01:06:05.529Z,16.00
2022-10-31T01:08:34.540Z,14.93
2022-10-31T01:11:15.826Z,14.90
2022-10-31T01:13:43.685Z,16.17
2022-10-31T01:16:19.020Z,16.48
2022-10-31T01:18:46.295Z,14.35
2022-10-31T01:21:19.226Z,17.52
2022-10-31T01:23:50.220Z,15.77
2022-10-31T01:26:21.476Z,15.40
2022-10-31T01:28:51.271Z,16.58
2022-10-31T01:31:20.328Z,16.15
2022-10-31T01:33:47.846Z,17.23
2022-10-31T01:36:33.498Z,17.50
2022-10-31T01:39:04.747Z,17.33
2022-10-31T01:41:35.057Z,16.65
2022-10-31T01:44:16.661Z,19.15
2022-10-31T01:46:53.680Z,15.68
2022-10-31T01:49:38.689Z,18.30
2022-10-31T01:52:14.850Z,17.55
2022-10-31T01:54:48.823Z,18.15
2022-10-31T01:57:16.606Z,19.15
2022-10-31T01:59:48.942Z,20.92
2022-10-31T02:02:19.633Z,20.98
2022-10-31T02:04:49.765Z,19.80
2022-10-31T02:07:27.738Z,21.08
2022-10-31T02:09:59.576Z,22.85
2022-10-31T02:12:27.006Z,21.52
2022-10-31T02:15:01.013Z,21.55
2022-10-31T02:17:29.947Z,21.48
2022-10-31T02:20:22.084Z,22.90
2022-10-31T02:23:15.826Z,23.08
2022-10-31T02:26:20.493Z,22.20
2022-10-31T02:29:21.178Z,22.77
2022-10-31T02:32:16.352Z,22.77
2022-10-31T02:35:14.665Z,23.30
2022-10-31T02:38:04.958Z,24.23
2022-10-31T02:40:39.387Z,23.13
2022-10-31T02:43:37.089Z,25.70
2022-10-31T02:46:11.977Z,23.25
2022-10-31T02:48:41.713Z,23.45
2022-10-31T02:51:11.009Z,22.77
2022-10-31T02:53:38.915Z,24.52
2022-10-31T02:56:17.688Z,22.52
2022-10-31T02:59:00.689Z,21.90
2022-10-31T03:01:44.333Z,22.90
2022-10-31T03:05:02.897Z,24.20
2022-10-31T03:07:41.570Z,20.45
2022-10-31T03:10:11.629Z,20.42
2022-10-31T03:13:06.402Z,22.13
2022-10-31T03:15:38.537Z,20.30
2022-10-31T03:18:29.307Z,20.85
2022-10-31T03:21:02.515Z,19.20
2022-10-31T03:23:32.236Z,20.50
2022-10-31T03:26:03.495Z,22.23
2022-10-31T03:28:37.172Z,21.35
2022-10-31T03:31:07.564Z,20.73
2022-10-31T03:33:39.749Z,22.73
2022-10-31T03:36:10.730Z,20.42
2022-10-31T03:38:39.021Z,22.00
2022-10-31T03:41:14.055Z,21.35
2022-10-31T03:43:45.470Z,20.45
2022-10-31T03:46:13.141Z,19.63
2022-10-31T03:48:40.472Z,20.60
2022-10-31T03:51:34.939Z,20.45
2022-10-31T03:54:15.331Z,21.33
2022-10-31T03:56:50.653Z,20.20
2022-10-31T03:59:25.350Z,23.73
2022-10-31T04:01:56.432Z,22.27
2022-10-31T04:04:23.821Z,21.30
2022-10-31T04:06:53.212Z,22.65
2022-10-31T04:09:21.361Z,23.35
2022-10-31T04:11:52.794Z,22.33
2022-10-31T04:14:37.708Z,23.27
2022-10-31T04:17:08.887Z,24.02
2022-10-31T04:19:39.733Z,23.45
2022-10-31T04:22:07.206Z,24.52
2022-10-31T04:24:34.245Z,26.20
2022-10-31T04:27:01.438Z,30.67
2022-10-31T04:29:32.696Z,28.13
2022-10-31T04:31:59.798Z,27.67
2022-10-31T04:34:28.063Z,31.60
2022-10-31T04:36:55.153Z,30.27
2022-10-31T04:39:25.761Z,30.30
2022-10-31T04:42:20.204Z,28.50
2022-10-31T04:44:47.363Z,29.52
2022-10-31T04:47:15.303Z,27.60
2022-10-31T04:49:44.526Z,32.60
2022-10-31T04:52:13.605Z,27.73
2022-10-31T04:54:41.405Z,30.15
2022-10-31T04:57:31.622Z,28.42
2022-10-31T05:00:02.065Z,30.02
2022-10-31T05:02:30.186Z,28.67
2022-10-31T05:04:59.268Z,31.40
2022-10-31T05:07:26.353Z,30.55
2022-10-31T05:09:53.505Z,30.08
2022-10-31T05:12:21.101Z,29.27
2022-10-31T05:15:07.296Z,29.58
2022-10-31T05:18:03.843Z,31.20
2022-10-31T05:20:49.939Z,29.63
2022-10-31T05:23:27.713Z,31.02
2022-10-31T05:25:54.973Z,31.13
2022-10-31T05:28:22.854Z,29.63
2022-10-31T05:30:50.555Z,32.33
2022-10-31T05:33:17.700Z,26.77
2022-10-31T05:36:05.079Z,32.28
2022-10-31T05:38:54.469Z,27.17
2022-10-31T05:41:26.472Z,26.17
2022-10-31T05:44:02.143Z,24.88
2022-10-31T05:46:31.473Z,28.27
2022-10-31T05:49:10.746Z,26.95
2022-10-31T05:52:10.225Z,25.88
2022-10-31T05:54:45.190Z,26.05
2022-10-31T05:57:12.308Z,26.55
2022-10-31T05:59:42.819Z,25.75
2022-10-31T06:02:10.087Z,28.75
2022-10-31T06:04:57.405Z,26.38
2022-10-31T06:07:25.886Z,26.02
2022-10-31T06:09:53.563Z,28.23
2022-10-31T06:12:22.025Z,25.10
2022-10-31T06:15:09.525Z,23.20
2022-10-31T06:17:37.381Z,21.75
2022-10-31T06:20:24.676Z,21.08
2022-10-31T06:25:26.266Z,18.35
2022-10-31T06:27:54.115Z,19.20
2022-10-31T06:30:23.914Z,19.08
2022-10-31T06:32:51.002Z,19.63
2022-10-31T06:35:20.088Z,19.70
2022-10-31T06:37:54.842Z,18.38
2022-10-31T06:40:39.609Z,19.55
2022-10-31T06:43:23.793Z,19.63
2022-10-31T06:45:59.125Z,18.90
2022-10-31T06:48:36.381Z,17.85
2022-10-31T06:51:19.100Z,16.95
2022-10-31T06:53:46.484Z,19.15
2022-10-31T06:56:16.467Z,17.20
2022-10-31T06:58:48.749Z,17.65
2022-10-31T07:01:17.900Z,18.88
2022-10-31T07:03:45.192Z,18.23
2022-10-31T07:06:12.422Z,17.45
2022-10-31T07:08:40.711Z,18.08
2022-10-31T07:11:08.168Z,17.02
2022-10-31T07:13:35.534Z,17.67
2022-10-31T07:16:08.791Z,18.13
2022-10-31T07:18:37.203Z,18.27
2022-10-31T07:21:05.076Z,16.85
2022-10-31T07:23:35.361Z,18.70
2022-10-31T07:26:22.755Z,16.95
2022-10-31T07:28:52.269Z,15.95
2022-10-31T07:31:22.814Z,16.70
2022-10-31T07:33:52.945Z,18.27
2022-10-31T07:36:40.343Z,16.70
2022-10-31T07:39:16.542Z,16.63
2022-10-31T07:41:44.597Z,17.30
2022-10-31T07:44:11.773Z,17.95
2022-10-31T07:46:53.888Z,17.77
2022-10-31T07:49:39.625Z,17.42
2022-10-31T07:52:29.990Z,18.55
2022-10-31T07:55:15.961Z,17.23
2022-10-31T07:57:54.161Z,16.50
2022-10-31T08:00:21.384Z,15.35
2022-10-31T08:02:57.818Z,15.70
2022-10-31T08:05:55.609Z,15.98
2022-10-31T08:08:36.064Z,17.67
2022-10-31T08:11:06.061Z,15.75
2022-10-31T08:13:33.849Z,15.65
2022-10-31T08:16:05.020Z,16.13
2022-10-31T08:18:35.502Z,15.82
2022-10-31T08:21:06.492Z,14.02
2022-10-31T08:23:33.972Z,14.13
2022-10-31T08:26:01.396Z,14.77
2022-10-31T08:28:28.700Z,15.68
2022-10-31T08:30:58.963Z,14.32
2022-10-31T08:33:41.335Z,13.75
2022-10-31T08:36:23.967Z,18.70
2022-10-31T08:39:06.682Z,16.20
2022-10-31T08:41:33.838Z,13.93
2022-10-31T08:44:01.672Z,15.73
2022-10-31T08:46:28.826Z,15.45
2022-10-31T08:48:56.068Z,14.93
2022-10-31T08:51:24.218Z,17.42
2022-10-31T08:53:54.375Z,15.68
2022-10-31T08:56:33.587Z,15.65
2022-10-31T08:59:03.336Z,16.42
2022-10-31T09:02:06.326Z,14.98
2022-10-31T09:04:34.493Z,15.98
2022-10-31T09:07:20.268Z,17.25
2022-10-31T09:09:48.433Z,16.92
2022-10-31T09:12:15.688Z,17.80
2022-10-31T09:15:03.931Z,16.98
2022-10-31T09:17:39.696Z,17.80
2022-10-31T09:20:23.380Z,18.25
2022-10-31T09:23:24.414Z,18.15
2022-10-31T09:25:57.247Z,18.33
2022-10-31T09:29:01.699Z,16.30
2022-10-31T09:31:31.144Z,16.58
2022-10-31T09:34:17.296Z,17.40
2022-10-31T09:36:48.788Z,16.60
2022-10-31T09:39:21.248Z,18.67
2022-10-31T09:44:47.253Z,17.38
2022-10-31T09:47:48.468Z,19.40
2022-10-31T09:50:56.107Z,17.02
2022-10-31T09:54:06.954Z,17.73
2022-10-31T09:56:35.868Z,16.45
2022-10-31T09:59:06.319Z,19.02
2022-10-31T10:01:52.659Z,18.20
2022-10-31T10:04:51.066Z,17.75
2022-10-31T10:07:47.990Z,17.30
2022-10-31T10:10:51.422Z,18.08
2022-10-31T10:14:21.565Z,17.70
2022-10-31T10:17:03.578Z,18.50
2022-10-31T10:19:49.728Z,18.50
2022-10-31T10:22:33.101Z,17.85
2022-10-31T10:25:10.210Z,18.20
2022-10-31T10:27:56.212Z,17.38
2022-10-31T10:30:33.772Z,16.40
2022-10-31T10:33:06.042Z,17.27
2022-10-31T10:35:43.140Z,15.88
2022-10-31T10:38:26.422Z,18.30
2022-10-31T10:40:55.151Z,19.55
2022-10-31T10:43:32.262Z,18.02
2022-10-31T10:46:30.436Z,17.08
2022-10-31T10:49:08.077Z,17.10
2022-10-31T10:54:55.275Z,18.73
2022-10-31T10:57:39.678Z,17.00
2022-10-31T11:02:58.326Z,17.92
2022-10-31T11:05:41.123Z,17.52
2022-10-31T11:08:09.545Z,17.55
2022-10-31T11:10:43.111Z,17.77
2022-10-31T11:13:13.715Z,18.20
2022-10-31T11:15:59.539Z,17.33
2022-10-31T11:18:34.993Z,16.75
2022-10-31T11:21:05.556Z,17.73
2022-10-31T11:23:35.410Z,18.50
2022-10-31T11:26:07.468Z,16.95
2022-10-31T11:28:37.941Z,22.00
2022-10-31T11:31:15.935Z,17.55
2022-10-31T11:33:57.397Z,17.85
2022-10-31T11:36:33.801Z,17.98
2022-10-31T11:39:16.547Z,18.80
2022-10-31T11:41:44.991Z,17.33
2022-10-31T11:44:31.829Z,17.30
2022-10-31T11:47:15.805Z,13.40
2022-10-31T11:49:46.798Z,11.85
2022-10-31T11:52:25.994Z,12.77
2022-10-31T11:55:02.530Z,12.10
2022-10-31T11:57:33.249Z,13.25
2022-10-31T12:00:24.821Z,13.30
2022-10-31T12:03:41.508Z,13.07
2022-10-31T12:06:34.202Z,15.40
2022-10-31T12:09:35.427Z,13.48
2022-10-31T12:15:42.107Z,14.32
2022-10-31T12:19:18.606Z,14.75
2022-10-31T12:22:18.136Z,13.50
2022-10-31T12:25:17.876Z,14.27
2022-10-31T12:27:53.542Z,13.23
2022-10-31T12:30:34.423Z,13.13
2022-10-31T12:33:30.544Z,13.70
2022-10-31T12:40:01.164Z,14.18
2022-10-31T12:54:29.464Z,14.45
2022-10-31T12:57:08.761Z,15.60
2022-10-31T12:59:44.754Z,16.90
2022-10-31T13:02:20.122Z,15.27
2022-10-31T13:04:58.895Z,16.05
2022-10-31T13:08:11.074Z,16.27
2022-10-31T13:10:46.468Z,16.10
2022-10-31T13:13:34.097Z,16.45
2022-10-31T13:19:59.745Z,16.30
2022-10-31T13:22:32.770Z,15.15
2022-10-31T13:25:03.068Z,13.75
2022-10-31T13:28:27.705Z,13.70
2022-10-31T13:30:55.595Z,12.57
2022-10-31T13:33:39.042Z,13.60
2022-10-31T13:36:06.541Z,13.18
2022-10-31T13:38:48.883Z,13.13
2022-10-31T13:41:36.342Z,13.93
2022-10-31T13:44:25.081Z,13.18
2022-10-31T13:46:54.004Z,15.25
2022-10-31T13:49:30.421Z,14.73
2022-10-31T13:52:15.246Z,15.60
2022-10-31T13:54:46.050Z,18.90
2022-10-31T13:57:39.952Z,17.45
2022-10-31T14:00:25.285Z,17.80
2022-10-31T14:02:56.812Z,21.98
2022-10-31T14:05:37.210Z,22.20
2022-10-31T14:08:07.655Z,21.23
2022-10-31T14:10:40.102Z,25.20
2022-10-31T14:13:25.038Z,26.00
2022-10-31T14:16:05.735Z,25.75
2022-10-31T14:18:37.394Z,25.65
2022-10-31T14:21:26.490Z,24.35
2022-10-31T14:23:55.197Z,24.73
2022-10-31T14:26:31.962Z,23.50
2022-10-31T14:29:19.101Z,23.25
2022-10-31T14:32:00.152Z,20.13
2022-10-31T14:34:29.516Z,19.05
2022-10-31T14:37:06.378Z,19.17
2022-10-31T14:39:52.648Z,19.50
2022-10-31T14:42:44.700Z,19.65
2022-10-31T14:45:47.314Z,18.65
2022-10-31T14:48:33.816Z,17.27
2022-10-31T14:51:05.044Z,17.83
2022-10-31T14:53:47.466Z,17.45
2022-10-31T14:56:21.459Z,16.50
2022-10-31T15:01:19.290Z,14.05
2022-10-31T15:04:10.142Z,14.32
2022-10-31T15:06:43.125Z,12.95
2022-10-31T15:09:34.574Z,12.57
2022-10-31T15:12:26.875Z,13.10
2022-10-31T15:14:54.913Z,12.07
2022-10-31T15:17:23.130Z,11.70
2022-10-31T15:19:51.318Z,11.98
2022-10-31T15:22:20.727Z,11.20
2022-10-31T15:24:49.772Z,11.98
2022-10-31T15:27:18.626Z,12.35
2022-10-31T15:29:54.543Z,12.07
2022-10-31T15:32:23.826Z,11.93
2022-10-31T15:34:52.950Z,12.20
2022-10-31T15:37:25.955Z,11.98
2022-10-31T15:39:53.288Z,12.18
2022-10-31T15:42:35.130Z,13.38
2022-10-31T15:45:18.098Z,13.13
2022-10-31T15:48:04.325Z,12.07
2022-10-31T15:50:46.128Z,13.10
2022-10-31T15:53:20.597Z,13.75
2022-10-31T15:56:08.652Z,13.63
2022-10-31T15:58:44.740Z,11.73
2022-10-31T16:01:33.804Z,12.70
2022-10-31T16:04:13.444Z,12.55
2022-10-31T16:06:40.787Z,13.82
2022-10-31T16:09:34.361Z,12.48
2022-10-31T16:12:01.788Z,12.18
2022-10-31T16:14:35.082Z,13.63
2022-10-31T16:17:02.749Z,12.55
2022-10-31T16:19:42.856Z,13.45
2022-10-31T16:22:20.339Z,13.57
2022-10-31T16:24:54.615Z,13.38
2022-10-31T16:27:30.993Z,14.70
2022-10-31T16:30:02.501Z,13.40
2022-10-31T16:32:55.433Z,14.40
2022-10-31T16:35:34.872Z,13.77
2022-10-31T16:38:02.427Z,14.20
2022-10-31T16:40:29.949Z,15.07
2022-10-31T16:43:00.156Z,13.60
2022-10-31T16:45:32.133Z,14.85
2022-10-31T16:48:11.257Z,14.82
2022-10-31T16:50:38.933Z,14.23
2022-10-31T16:53:13.895Z,13.43
2022-10-31T16:55:47.789Z,14.20
2022-10-31T16:58:19.934Z,14.02
2022-10-31T17:00:47.752Z,13.77
2022-10-31T17:03:15.097Z,13.73
2022-10-31T17:05:48.776Z,14.73
2022-10-31T17:08:25.184Z,14.75
2022-10-31T17:10:59.140Z,13.88
2022-10-31T17:13:32.187Z,15.25
2022-10-31T17:16:01.869Z,14.52
2022-10-31T17:18:29.621Z,15.05
2022-10-31T17:21:05.547Z,14.93
2022-10-31T17:23:33.549Z,15.40
2022-10-31T17:26:00.764Z,15.70
2022-10-31T17:28:28.138Z,16.00
2022-10-31T17:31:14.738Z,15.63
2022-10-31T17:33:44.766Z,15.38
2022-10-31T17:36:12.631Z,16.25
2022-10-31T17:38:39.873Z,15.77
2022-10-31T17:41:11.154Z,16.17
2022-10-31T17:43:39.440Z,15.85
2022-10-31T17:46:07.465Z,17.13
2022-10-31T17:48:36.234Z,16.45
2022-10-31T17:51:05.431Z,15.90
2022-10-31T17:53:34.655Z,16.63
2022-10-31T17:56:07.846Z,18.02
2022-10-31T17:58:36.903Z,16.03
2022-10-31T18:01:16.505Z,17.50
2022-10-31T18:03:44.213Z,16.55
2022-10-31T18:06:14.414Z,17.48
2022-10-31T18:08:41.811Z,17.23
2022-10-31T18:11:16.994Z,16.95
2022-10-31T18:13:44.233Z,17.52
2022-10-31T18:17:17.714Z,16.33
2022-10-31T18:19:54.216Z,17.50
2022-10-31T18:22:30.912Z,17.42
2022-10-31T18:25:02.252Z,17.73
2022-10-31T18:27:39.571Z,17.63
2022-10-31T18:30:07.331Z,18.70
2022-10-31T18:32:36.621Z,20.10
2022-10-31T18:35:04.191Z,18.80
2022-10-31T18:37:35.639Z,19.05
2022-10-31T18:40:13.713Z,19.25
2022-10-31T18:45:52.442Z,20.25
2022-10-31T18:48:14.463Z,19.48
2022-10-31T18:50:49.986Z,20.48
2022-10-31T18:53:18.449Z,21.73
2022-10-31T18:55:50.325Z,19.02
2022-10-31T18:58:25.412Z,19.88
2022-10-31T19:00:56.034Z,19.45
2022-10-31T19:03:27.553Z,19.65
2022-10-31T19:06:00.423Z,19.40
2022-10-31T19:10:55.828Z,19.63
2022-10-31T19:13:22.968Z,20.80
2022-10-31T19:15:50.202Z,20.73
2022-10-31T19:18:24.701Z,20.58
2022-10-31T19:20:52.550Z,18.63
2022-10-31T19:23:23.857Z,20.60
2022-10-31T19:25:51.418Z,19.20
2022-10-31T19:28:18.615Z,20.30
2022-10-31T19:30:53.322Z,22.35
2022-10-31T19:33:20.763Z,20.88
2022-10-31T19:35:48.182Z,22.17
2022-10-31T19:38:16.754Z,22.30
2022-10-31T19:40:43.979Z,24.15
2022-10-31T19:43:11.512Z,21.83
2022-10-31T19:45:38.716Z,22.55
2022-10-31T19:48:06.047Z,23.00
2022-10-31T19:50:33.511Z,22.27
2022-10-31T19:53:05.034Z,21.52
2022-10-31T19:55:33.345Z,21.13
2022-10-31T19:58:02.226Z,21.70
2022-10-31T20:00:32.826Z,23.42
2022-10-31T20:03:07.465Z,21.52
2022-10-31T20:05:40.629Z,21.33
2022-10-31T20:08:18.391Z,21.88
2022-10-31T20:11:02.172Z,20.40
2022-10-31T20:13:31.654Z,22.63
2022-10-31T20:16:04.111Z,21.83
2022-10-31T20:18:31.725Z,23.17
2022-10-31T20:21:05.055Z,20.70
2022-10-31T20:23:35.539Z,23.10
2022-10-31T20:26:03.578Z,22.25
2022-10-31T20:28:32.556Z,22.58
2022-10-31T20:31:00.968Z,22.77
2022-10-31T20:33:28.317Z,22.13
2022-10-31T20:35:55.608Z,22.52
2022-10-31T20:38:23.422Z,22.45
2022-10-31T20:40:51.164Z,22.65
2022-10-31T20:43:19.192Z,22.63
2022-10-31T20:45:46.337Z,22.50
2022-10-31T20:48:13.768Z,23.98
2022-10-31T20:50:41.788Z,24.65
2022-10-31T20:53:08.943Z,25.20
2022-10-31T20:55:36.012Z,24.05
2022-10-31T20:58:03.619Z,24.95
2022-10-31T21:00:34.208Z,25.00
2022-10-31T21:03:01.824Z,24.35
2022-10-31T21:05:29.211Z,23.98
2022-10-31T21:07:56.783Z,25.08
2022-10-31T21:10:23.939Z,24.63
2022-10-31T21:12:51.418Z,25.15
2022-10-31T21:15:22.119Z,24.38
2022-10-31T21:17:49.619Z,24.55
2022-10-31T21:20:20.339Z,24.88
2022-10-31T21:22:47.626Z,24.65
2022-10-31T21:25:15.128Z,23.80
2022-10-31T21:27:42.293Z,25.50
2022-10-31T21:30:09.780Z,25.15
2022-10-31T21:32:37.350Z,23.23
2022-10-31T21:35:04.834Z,25.33
2022-10-31T21:37:34.958Z,24.88
2022-10-31T21:40:02.191Z,23.52
2022-10-31T21:42:29.958Z,25.80
2022-10-31T21:44:57.467Z,25.50
2022-10-31T21:47:27.404Z,25.65
2022-10-31T21:49:59.061Z,26.60
2022-10-31T21:52:26.756Z,25.65
2022-10-31T21:54:54.156Z,25.65
2022-10-31T21:57:26.801Z,26.40
2022-10-31T21:59:54.585Z,23.75
2022-10-31T22:02:24.025Z,25.10
2022-10-31T22:04:55.865Z,24.40
2022-10-31T22:07:23.967Z,24.33
2022-10-31T22:09:52.435Z,25.05
2022-10-31T22:12:20.471Z,25.23
2022-10-31T22:14:48.324Z,25.00
2022-10-31T22:17:21.696Z,26.10
2022-10-31T22:19:48.915Z,25.55
2022-10-31T22:22:18.925Z,24.77
2022-10-31T22:24:46.218Z,24.73
2022-10-31T22:27:13.320Z,26.48
2022-10-31T22:29:40.992Z,27.00
2022-10-31T22:32:08.586Z,26.02
2022-10-31T22:34:35.917Z,26.05
2022-10-31T22:37:05.766Z,27.48
2022-10-31T22:39:32.858Z,27.42
2022-10-31T22:42:00.794Z,26.42
2022-10-31T22:44:28.772Z,27.63
2022-10-31T22:46:56.452Z,27.33
2022-10-31T22:49:28.814Z,25.48
2022-10-31T22:52:02.990Z,26.33
2022-10-31T22:57:01.208Z,24.40
2022-10-31T22:59:34.819Z,25.48
2022-10-31T23:02:08.436Z,26.88
2022-10-31T23:04:39.762Z,26.35
2022-10-31T23:07:14.559Z,25.38
2022-10-31T23:09:43.416Z,24.75
2022-10-31T23:12:29.684Z,25.73
2022-10-31T23:14:57.324Z,25.08
2022-10-31T23:17:24.548Z,25.13
2022-10-31T23:19:51.628Z,26.35
2022-10-31T23:22:18.777Z,25.52
2022-10-31T23:24:47.414Z,24.42
2022-10-31T23:27:17.925Z,25.80
2022-10-31T23:29:53.488Z,26.48
2022-10-31T23:32:46.874Z,24.95
2022-10-31T23:35:15.682Z,23.92
2022-10-31T23:37:43.279Z,24.42
2022-10-31T23:40:16.506Z,24.23
2022-10-31T23:42:44.707Z,24.00
2022-10-31T23:45:12.585Z,25.38
2022-10-31T23:47:43.313Z,26.30
2022-10-31T23:50:14.264Z,24.00
2022-10-31T23:52:41.516Z,24.70
2022-10-31T23:55:08.870Z,24.45
2022-10-31T23:57:36.468Z,25.05
